Terminal Aerodrome Forecast
Issued by NWS

Home | Current Version | Previous Version | Text Only | Print | Product List | Glossary On
Versions: 1 2 3 4 5 6 7 8 9 10 11 12 13 14 15 16 17 18 19 20 21 22 23 24 25 26 27 28 29
000
FTUS44 KOUN 282320
TAFCSM
TAF
KCSM 282320Z 2900/2924 17012G20KT P6SM FEW060 OVC120
     FM290500 18012KT P6SM VCSH FEW015 BKN100
      TEMPO 2906/2910 5SM -TSRA BKN030CB OVC100
     FM291100 18012KT P6SM OVC030
     FM291800 17010KT P6SM SCT050 BKN100=

USA.gov is the U.S. government's official web portal to all federal, state and local government web resources and services.